Time;durP1;ratioP1;P1;durP2;ratioP2;P2;SDS_P1;SDS_P2;PMS_P1;PMS_P2;Temp;Humidity;BMP_temperature;BMP_pressure;BME280_temperature;BME280_humidity;BME280_pressure;Samples;Min_cycle;Max_cycle;Signal;HPM_P1;HPM_P2
2024/04/07 00:00:22;;;;;;;745.50;237.20;;;21.60;31.00;;;;;;5015902;28;20061;-64
2024/04/07 00:02:52;;;;;;;529.78;128.20;;;21.50;31.00;;;;;;5016519;28;20103;-66
2024/04/07 00:05:19;;;;;;;552.75;141.27;;;21.40;31.00;;;;;;5014788;28;20065;-65
2024/04/07 00:07:46;;;;;;;543.60;136.40;;;21.40;31.10;;;;;;5019305;28;20397;-66
2024/04/07 00:10:13;;;;;;;720.15;217.52;;;21.30;31.10;;;;;;5015037;28;20069;-63
2024/04/07 00:12:41;;;;;;;532.20;135.27;;;21.20;31.10;;;;;;5017549;28;20107;-65
2024/04/07 00:15:08;;;;;;;582.33;154.18;;;21.20;31.20;;;;;;5024933;28;20068;-63
2024/04/07 00:17:35;;;;;;;538.63;140.55;;;21.10;31.20;;;;;;5025279;28;20058;-63
2024/04/07 00:20:04;;;;;;;551.47;145.90;;;21.10;31.20;;;;;;5015741;28;20080;-64
2024/04/07 00:22:32;;;;;;;536.03;126.40;;;21.00;31.30;;;;;;5012506;28;20161;-65
2024/04/07 00:24:58;;;;;;;553.28;131.88;;;21.00;31.30;;;;;;5011621;28;20087;-64
2024/04/07 00:27:27;;;;;;;523.95;124.65;;;20.90;31.40;;;;;;5012425;28;20050;-66
2024/04/07 00:29:53;;;;;;;518.45;121.68;;;20.90;31.50;;;;;;5002198;28;20045;-64
2024/04/07 00:32:21;;;;;;;734.08;208.77;;;20.90;31.70;;;;;;4995606;28;20061;-64
2024/04/07 00:34:48;;;;;;;530.92;126.10;;;20.80;31.70;;;;;;5009264;28;20067;-66
2024/04/07 00:37:17;;;;;;;517.65;125.30;;;20.80;31.60;;;;;;5020974;28;20073;-65
2024/04/07 00:39:44;;;;;;;543.38;131.65;;;20.80;31.70;;;;;;5021277;28;20053;-65
2024/04/07 00:42:12;;;;;;;706.20;191.98;;;20.80;31.70;;;;;;5010106;28;20057;-65
2024/04/07 00:44:39;;;;;;;540.60;134.73;;;20.90;31.70;;;;;;5005923;28;20057;-67
2024/04/07 00:47:07;;;;;;;535.47;127.60;;;20.90;31.70;;;;;;5008181;28;20050;-65
2024/04/07 00:49:34;;;;;;;561.55;135.82;;;20.90;31.80;;;;;;4994489;28;20135;-64
2024/04/07 00:52:02;;;;;;;521.60;140.52;;;20.90;31.80;;;;;;5005723;28;20155;-64
2024/04/07 00:54:30;;;;;;;560.22;133.77;;;20.90;31.80;;;;;;5003819;28;20053;-65
2024/04/07 00:56:58;;;;;;;526.00;121.97;;;20.90;31.90;;;;;;5004625;28;20131;-65
2024/04/07 00:59:25;;;;;;;520.85;125.18;;;20.90;31.80;;;;;;4998354;28;20102;-64
2024/04/07 01:01:52;;;;;;;549.75;126.60;;;20.90;32.60;;;;;;5012128;28;20608;-65
2024/04/07 01:04:19;;;;;;;712.90;203.75;;;20.90;31.90;;;;;;5007062;28;20057;-64
2024/04/07 01:06:46;;;;;;;533.92;128.30;;;20.80;31.80;;;;;;5011674;28;20057;-65
2024/04/07 01:09:12;;;;;;;535.30;127.82;;;20.80;31.70;;;;;;5017642;28;20118;-64
2024/04/07 01:11:41;;;;;;;553.97;133.25;;;20.80;31.70;;;;;;5014725;28;20058;-64
2024/04/07 01:14:09;;;;;;;640.20;164.57;;;20.80;31.70;;;;;;4992200;28;20049;-64
2024/04/07 01:16:35;;;;;;;527.90;118.80;;;20.80;32.40;;;;;;5014204;28;20136;-65
2024/04/07 01:19:03;;;;;;;532.88;118.93;;;20.70;31.70;;;;;;5017366;28;20069;-64
2024/04/07 01:21:29;;;;;;;575.58;130.40;;;20.70;31.60;;;;;;5011377;28;20503;-65
2024/04/07 01:23:58;;;;;;;552.38;126.93;;;20.70;31.70;;;;;;4998855;28;20061;-65
2024/04/07 01:26:24;;;;;;;618.35;161.85;;;20.70;31.80;;;;;;4990839;28;20045;-69
2024/04/07 01:28:52;;;;;;;530.95;119.03;;;20.70;31.80;;;;;;4997947;28;20759;-65
2024/04/07 01:31:18;;;;;;;583.92;136.65;;;20.60;31.70;;;;;;5013267;28;20115;-64
2024/04/07 01:33:46;;;;;;;528.53;118.95;;;20.60;31.70;;;;;;5016250;28;20062;-64
2024/04/07 01:36:12;;;;;;;695.50;189.40;;;20.60;31.80;;;;;;4946523;28;1178697;-63
2024/04/07 01:38:40;;;;;;;544.38;125.63;;;20.60;31.80;;;;;;5015848;28;20061;-65
2024/04/07 01:41:08;;;;;;;552.47;129.05;;;20.60;31.90;;;;;;5014231;28;20069;-64
2024/04/07 01:43:35;;;;;;;522.28;115.75;;;20.50;31.90;;;;;;5017014;28;20423;-63
2024/04/07 01:46:04;;;;;;;618.53;144.80;;;20.50;31.80;;;;;;5007868;28;20520;-63
2024/04/07 01:48:31;;;;;;;513.78;115.15;;;20.50;31.90;;;;;;5012458;28;20061;-64
2024/04/07 01:50:58;;;;;;;526.42;116.20;;;20.50;31.90;;;;;;4999319;28;20057;-65
2024/04/07 01:53:25;;;;;;;540.50;122.40;;;20.50;32.00;;;;;;4999716;28;20057;-65
2024/04/07 01:55:53;;;;;;;523.92;115.65;;;20.50;32.00;;;;;;5017454;28;20058;-63
2024/04/07 01:58:22;;;;;;;704.95;188.65;;;20.50;32.00;;;;;;5022945;28;20049;-63
2024/04/07 02:00:48;;;;;;;529.65;119.15;;;20.50;32.10;;;;;;5006091;28;20054;-64
2024/04/07 02:03:15;;;;;;;520.45;118.85;;;20.50;32.00;;;;;;5008111;28;20054;-65
2024/04/07 02:05:43;;;;;;;509.90;116.47;;;20.50;32.00;;;;;;5013975;28;20132;-63
2024/04/07 02:08:11;;;;;;;706.53;184.45;;;20.50;32.10;;;;;;5006905;28;20697;-65
2024/04/07 02:10:38;;;;;;;526.88;116.53;;;20.50;32.10;;;;;;5015130;28;20057;-65
2024/04/07 02:13:05;;;;;;;542.33;121.65;;;20.50;32.20;;;;;;5014151;28;20087;-63
2024/04/07 02:15:36;;;;;;;528.13;118.68;;;20.50;32.20;;;;;;5013961;28;20072;-64
2024/04/07 02:18:04;;;;;;;539.40;120.30;;;20.60;32.30;;;;;;5008631;28;20412;-63
2024/04/07 02:20:30;;;;;;;516.65;116.53;;;20.60;32.20;;;;;;5012125;28;20131;-63
2024/04/07 02:22:58;;;;;;;574.22;128.48;;;20.60;32.00;;;;;;5014394;28;20475;-65
2024/04/07 02:25:24;;;;;;;514.10;115.05;;;20.60;32.00;;;;;;5029588;28;20052;-65
2024/04/07 02:27:52;;;;;;;539.97;120.13;;;20.60;32.00;;;;;;5014052;28;20093;-64
2024/04/07 02:30:19;;;;;;;703.13;194.45;;;20.60;32.00;;;;;;5004267;28;20083;-65
2024/04/07 02:32:47;;;;;;;534.08;118.30;;;20.60;32.00;;;;;;5006963;28;20052;-65
2024/04/07 02:35:15;;;;;;;518.78;114.75;;;20.60;32.00;;;;;;5010252;28;20055;-65
2024/04/07 02:37:44;;;;;;;528.67;117.85;;;20.60;32.00;;;;;;5014454;28;20049;-62
2024/04/07 02:40:11;;;;;;;696.53;177.68;;;20.60;31.90;;;;;;5019157;28;20053;-63
2024/04/07 02:42:39;;;;;;;524.42;118.18;;;20.60;32.00;;;;;;5013109;28;20054;-65
2024/04/07 02:48:06;;;;;;;518.65;114.47;;;20.60;32.10;;;;;;5000396;28;20145;-64
2024/04/07 02:50:34;;;;;;;567.63;126.80;;;20.60;32.20;;;;;;5009356;28;20045;-63
2024/04/07 02:53:02;;;;;;;547.40;122.40;;;20.60;32.10;;;;;;5013577;28;20511;-65
2024/04/07 02:55:30;;;;;;;520.03;114.55;;;20.60;32.80;;;;;;5005090;28;20045;-64
2024/04/07 02:57:56;;;;;;;530.85;117.70;;;20.60;32.00;;;;;;5006387;28;20733;-63
2024/04/07 03:00:24;;;;;;;649.33;169.13;;;20.60;32.70;;;;;;5001661;28;20834;-64
2024/04/07 03:02:52;;;;;;;534.60;117.30;;;20.60;32.00;;;;;;5007921;28;20084;-63
2024/04/07 03:05:19;;;;;;;563.67;128.02;;;20.50;32.00;;;;;;5001048;28;20524;-63
2024/04/07 03:07:49;;;;;;;516.72;116.35;;;20.50;32.00;;;;;;5007420;28;20091;-63
2024/04/07 03:10:18;;;;;;;793.55;220.43;;;20.50;32.00;;;;;;4994610;28;20053;-64
2024/04/07 03:12:45;;;;;;;531.70;118.22;;;20.40;32.30;;;;;;5013758;28;20059;-64
2024/04/07 03:15:13;;;;;;;515.10;113.63;;;20.30;31.90;;;;;;5013207;28;20617;-63
2024/04/07 03:17:39;;;;;;;585.75;134.18;;;20.30;32.00;;;;;;5022785;28;20045;-64
2024/04/07 03:20:09;;;;;;;548.70;123.10;;;20.20;32.00;;;;;;5008232;28;20054;-62
2024/04/07 03:22:35;;;;;;;527.40;116.30;;;20.20;32.00;;;;;;5011977;28;20749;-64
2024/04/07 03:25:03;;;;;;;515.63;112.78;;;20.10;32.20;;;;;;5008933;28;20041;-64
2024/04/07 03:27:30;;;;;;;567.03;125.40;;;20.10;32.20;;;;;;5015959;28;20060;-63
2024/04/07 03:29:57;;;;;;;526.65;116.40;;;20.20;33.00;;;;;;5002310;28;20061;-63
2024/04/07 03:32:23;;;;;;;606.15;152.90;;;20.20;32.30;;;;;;5012180;28;20617;-63
2024/04/07 03:34:51;;;;;;;522.50;115.38;;;20.20;32.20;;;;;;5001011;28;20054;-64
2024/04/07 03:37:20;;;;;;;587.78;137.38;;;20.20;32.20;;;;;;5025444;28;20056;-64
2024/04/07 03:39:47;;;;;;;513.95;111.82;;;20.20;32.20;;;;;;5010894;28;20412;-63
2024/04/07 03:42:14;;;;;;;704.88;193.77;;;20.20;32.20;;;;;;5002667;28;20080;-63
2024/04/07 03:44:42;;;;;;;514.65;111.50;;;20.20;32.10;;;;;;5011684;28;20045;-63
2024/04/07 03:47:12;;;;;;;507.88;111.20;;;20.20;32.00;;;;;;5019198;28;20053;-65
2024/04/07 03:49:40;;;;;;;518.08;112.10;;;20.10;32.10;;;;;;5020689;28;20049;-66
2024/04/07 03:52:06;;;;;;;577.88;129.48;;;20.10;32.20;;;;;;5015128;28;20749;-63
2024/04/07 03:54:35;;;;;;;518.60;112.00;;;20.10;32.90;;;;;;5015059;28;20057;-65
2024/04/07 03:57:02;;;;;;;536.60;117.55;;;20.00;32.30;;;;;;5017566;28;20064;-64
2024/04/07 03:59:29;;;;;;;529.40;113.95;;;20.00;32.80;;;;;;5008851;28;20053;-64
2024/04/07 04:02:00;;;;;;;547.08;120.18;;;20.00;32.40;;;;;;5013665;28;20053;-64
2024/04/07 04:04:26;;;;;;;522.03;113.03;;;20.00;32.60;;;;;;4995498;28;22093;-62
2024/04/07 04:06:54;;;;;;;596.75;133.23;;;20.00;32.50;;;;;;5007856;28;20057;-64
2024/04/07 04:09:21;;;;;;;540.35;121.75;;;20.10;32.60;;;;;;5014025;28;20061;-62
2024/04/07 04:11:52;;;;;;;525.00;114.53;;;20.10;32.50;;;;;;5014088;28;20059;-64
2024/04/07 04:14:19;;;;;;;721.70;194.85;;;20.10;32.50;;;;;;5008043;28;20077;-64
2024/04/07 04:16:46;;;;;;;530.42;113.55;;;20.10;32.30;;;;;;5016809;28;20620;-63
2024/04/07 04:19:13;;;;;;;535.50;119.10;;;20.10;32.20;;;;;;5004628;28;20061;-63
2024/04/07 04:21:42;;;;;;;522.58;115.13;;;20.10;32.20;;;;;;5022546;28;20124;-65
2024/04/07 04:24:08;;;;;;;657.58;156.45;;;20.10;32.20;;;;;;5006227;28;20061;-62
2024/04/07 04:26:36;;;;;;;527.25;113.18;;;20.10;32.20;;;;;;5014503;28;20239;-64
2024/04/07 04:29:03;;;;;;;513.72;110.50;;;20.00;32.20;;;;;;5013384;28;20419;-63
2024/04/07 04:31:32;;;;;;;516.80;112.80;;;20.00;32.30;;;;;;5006959;28;20159;-64
2024/04/07 04:33:58;;;;;;;503.65;108.03;;;19.90;32.20;;;;;;5010544;28;20064;-63
2024/04/07 04:36:26;;;;;;;576.72;140.35;;;19.90;32.20;;;;;;5005013;28;20037;-64
2024/04/07 04:38:52;;;;;;;505.48;109.43;;;19.90;32.30;;;;;;5016361;28;20054;-65
2024/04/07 04:41:20;;;;;;;511.52;110.35;;;19.90;32.40;;;;;;4987141;28;20050;-62
2024/04/07 04:43:46;;;;;;;521.30;111.30;;;19.90;32.40;;;;;;5003279;28;20080;-64
2024/04/07 04:46:15;;;;;;;707.75;190.73;;;19.90;32.60;;;;;;4994941;28;20046;-63
2024/04/07 04:48:43;;;;;;;523.53;111.28;;;19.90;32.60;;;;;;5011401;28;20058;-65
2024/04/07 04:51:10;;;;;;;523.40;112.07;;;20.00;32.60;;;;;;5007746;28;20095;-63
2024/04/07 04:53:37;;;;;;;514.55;109.13;;;20.00;32.40;;;;;;5015178;28;20049;-64
2024/04/07 04:56:05;;;;;;;507.02;109.43;;;20.10;32.50;;;;;;5009936;28;20543;-63
2024/04/07 04:58:33;;;;;;;553.15;120.65;;;20.10;32.50;;;;;;5002793;28;20135;-64
2024/04/07 05:01:10;;;;;;;519.22;112.60;;;20.10;32.50;;;;;;5004409;28;20069;-66
2024/04/07 05:03:38;;;;;;;543.45;117.95;;;20.10;32.40;;;;;;5011901;28;20627;-63
2024/04/07 05:06:11;;;;;;;527.90;116.15;;;20.10;32.50;;;;;;5006624;28;20057;-63
2024/04/07 05:08:38;;;;;;;545.67;124.10;;;20.10;32.40;;;;;;5007995;28;20118;-69
2024/04/07 05:11:06;;;;;;;538.38;122.03;;;20.20;32.50;;;;;;5010515;28;20528;-64
2024/04/07 05:13:33;;;;;;;526.70;115.30;;;20.20;32.50;;;;;;5015191;28;20062;-64
2024/04/07 05:16:02;;;;;;;520.00;114.25;;;20.20;32.50;;;;;;5000821;28;20099;-64
2024/04/07 05:18:29;;;;;;;527.38;115.85;;;20.30;32.50;;;;;;5006013;28;20057;-64
2024/04/07 05:21:03;;;;;;;528.90;117.20;;;20.40;32.50;;;;;;5025072;28;20108;-61
2024/04/07 05:23:29;;;;;;;524.58;123.15;;;20.40;32.40;;;;;;5014907;28;20054;-64
2024/04/07 05:25:58;;;;;;;523.45;119.38;;;20.60;32.40;;;;;;5012229;28;20057;-61
2024/04/07 05:28:26;;;;;;;571.47;147.40;;;20.60;32.30;;;;;;5004821;28;20512;-63
2024/04/07 05:30:53;;;;;;;587.80;138.95;;;20.70;32.40;;;;;;5008777;28;20528;-64
2024/04/07 05:33:20;;;;;;;522.67;120.05;;;20.70;32.30;;;;;;5000995;28;20394;-64
2024/04/07 05:35:54;;;;;;;575.85;135.90;;;20.70;32.30;;;;;;5003023;28;20063;-64
2024/04/07 05:38:22;;;;;;;727.58;203.43;;;20.80;32.30;;;;;;4992938;28;20077;-64
2024/04/07 05:40:56;;;;;;;566.38;132.48;;;20.90;32.30;;;;;;5013776;28;20057;-64
2024/04/07 05:43:23;;;;;;;520.40;118.25;;;21.00;32.20;;;;;;5030326;28;20053;-63
2024/04/07 05:45:51;;;;;;;569.15;134.23;;;21.10;32.10;;;;;;5009155;28;20496;-64
2024/04/07 05:48:17;;;;;;;707.28;202.98;;;21.20;32.00;;;;;;5012384;28;20050;-65
2024/04/07 05:50:45;;;;;;;543.05;128.20;;;21.30;32.00;;;;;;5011562;28;20520;-64
2024/04/07 05:53:12;;;;;;;519.95;121.60;;;21.50;32.00;;;;;;5008560;28;20168;-63
2024/04/07 05:55:41;;;;;;;522.35;122.88;;;21.60;32.00;;;;;;5012702;28;20088;-65
2024/04/07 05:58:08;;;;;;;593.58;149.25;;;21.70;31.90;;;;;;5012121;28;20054;-63
2024/04/07 06:00:36;;;;;;;552.30;137.90;;;21.80;31.80;;;;;;5004867;28;20076;-63
2024/04/07 06:03:03;;;;;;;516.60;152.57;;;21.90;31.80;;;;;;5015856;28;20063;-63
2024/04/07 06:05:30;;;;;;;519.97;123.88;;;21.90;31.60;;;;;;5010409;28;20054;-63
2024/04/07 06:07:57;;;;;;;539.08;132.55;;;21.90;31.60;;;;;;5012449;28;20617;-63
2024/04/07 06:10:24;;;;;;;654.15;176.90;;;21.90;32.30;;;;;;5003541;28;20926;-65
2024/04/07 06:12:52;;;;;;;536.30;128.02;;;22.00;31.50;;;;;;5015807;28;20138;-64
2024/04/07 06:15:20;;;;;;;535.28;129.13;;;22.00;32.10;;;;;;5007767;28;20053;-65
2024/04/07 06:17:47;;;;;;;545.20;133.82;;;22.10;31.50;;;;;;5007020;28;20050;-64
2024/04/07 06:20:14;;;;;;;696.47;198.95;;;22.20;31.40;;;;;;5019863;28;20060;-64
2024/04/07 06:22:40;;;;;;;550.60;136.25;;;22.40;31.40;;;;;;5009980;28;20053;-63
2024/04/07 06:25:08;;;;;;;522.78;133.57;;;22.50;31.20;;;;;;5009815;28;20057;-64
2024/04/07 06:27:36;;;;;;;587.53;151.60;;;22.60;31.10;;;;;;5004305;28;20468;-64
2024/04/07 06:30:07;;;;;;;538.15;134.70;;;22.70;31.10;;;;;;4993725;28;20068;-63
2024/04/07 06:32:34;;;;;;;588.13;166.52;;;22.90;31.00;;;;;;5006732;28;20057;-63
2024/04/07 06:35:02;;;;;;;551.33;146.27;;;22.90;30.80;;;;;;5002948;28;20519;-66
2024/04/07 06:37:28;;;;;;;586.22;171.95;;;23.00;30.90;;;;;;5008973;28;20049;-66
2024/04/07 06:39:56;;;;;;;535.40;157.45;;;23.00;30.80;;;;;;5008084;28;20133;-63
2024/04/07 06:42:27;;;;;;;727.47;214.38;;;23.10;30.80;;;;;;5006209;28;21045;-64
2024/04/07 06:44:54;;;;;;;526.88;136.38;;;23.10;30.60;;;;;;5011585;28;20591;-64
2024/04/07 06:47:23;;;;;;;552.92;193.77;;;23.00;30.60;;;;;;5009726;28;20049;-64
2024/04/07 06:49:51;;;;;;;547.55;145.57;;;23.00;30.60;;;;;;5011505;28;20786;-64
2024/04/07 06:52:18;;;;;;;735.15;215.23;;;23.00;30.70;;;;;;5006489;28;20061;-64
2024/04/07 06:54:45;;;;;;;521.85;142.57;;;23.00;30.70;;;;;;5017384;28;20064;-64
2024/04/07 06:57:13;;;;;;;543.03;141.30;;;23.00;30.70;;;;;;5007275;28;20049;-66
2024/04/07 06:59:41;;;;;;;529.67;144.90;;;23.00;30.80;;;;;;5008557;28;20432;-64
2024/04/07 07:02:07;;;;;;;599.35;163.18;;;23.10;30.80;;;;;;4991006;28;20041;-64
2024/04/07 07:04:36;;;;;;;548.38;156.52;;;23.30;30.70;;;;;;5011960;28;20072;-65
2024/04/07 07:07:03;;;;;;;538.55;150.15;;;23.40;30.60;;;;;;5006971;28;20065;-65
2024/04/07 07:09:30;;;;;;;544.03;158.88;;;23.60;30.50;;;;;;5002465;28;20049;-65
2024/04/07 07:11:57;;;;;;;594.00;166.20;;;23.70;30.30;;;;;;4995446;28;20054;-65
2024/04/07 07:14:25;;;;;;;719.88;224.68;;;23.90;30.30;;;;;;4999591;28;20398;-66
2024/04/07 07:16:51;;;;;;;541.78;164.52;;;24.00;30.70;;;;;;5009641;28;20057;-65
2024/04/07 07:19:21;;;;;;;590.92;164.93;;;24.20;30.10;;;;;;4999364;28;20092;-65
2024/04/07 07:21:49;;;;;;;538.13;145.25;;;24.40;30.00;;;;;;5014227;28;20092;-64
2024/04/07 07:24:17;;;;;;;725.85;228.07;;;24.60;30.00;;;;;;5002118;28;20041;-66
2024/04/07 07:26:43;;;;;;;545.03;155.40;;;24.80;29.90;;;;;;5017491;28;20057;-65
2024/04/07 07:29:12;;;;;;;538.28;161.18;;;25.30;30.40;;;;;;5017525;28;20056;-65
2024/04/07 07:31:38;;;;;;;547.47;178.45;;;26.50;30.20;;;;;;5012297;28;20057;-65
2024/04/07 07:34:06;;;;;;;569.55;202.82;;;27.90;29.70;;;;;;5027154;28;20128;-64
2024/04/07 07:36:32;;;;;;;559.85;219.63;;;29.50;29.40;;;;;;5001285;28;20049;-65
2024/04/07 07:39:01;;;;;;;703.17;287.02;;;30.70;28.50;;;;;;5011781;28;20121;-64
2024/04/07 07:41:28;;;;;;;589.45;243.13;;;31.20;27.80;;;;;;5014318;28;20145;-66
2024/04/07 07:43:55;;;;;;;570.80;246.18;;;31.20;27.60;;;;;;5031734;28;20147;-64
2024/04/07 07:46:22;;;;;;;730.30;327.17;;;31.40;27.70;;;;;;5011965;28;20082;-64
2024/04/07 07:48:50;;;;;;;584.75;266.48;;;31.60;27.60;;;;;;5015925;28;20050;-64
2024/04/07 07:51:17;;;;;;;573.53;272.77;;;32.30;27.10;;;;;;5025808;28;20046;-66
2024/04/07 07:53:44;;;;;;;584.55;282.52;;;33.00;26.60;;;;;;5005675;28;20069;-64
2024/04/07 07:56:12;;;;;;;748.78;351.65;;;33.60;26.80;;;;;;4999580;28;20084;-65
2024/04/07 07:58:40;;;;;;;596.20;305.88;;;34.10;26.10;;;;;;5018239;28;20060;-64
2024/04/07 08:01:07;;;;;;;568.13;305.92;;;34.70;25.70;;;;;;5010133;28;20054;-63
2024/04/07 08:03:35;;;;;;;607.50;330.73;;;35.20;25.60;;;;;;5010542;28;20061;-65
2024/04/07 08:06:03;;;;;;;581.35;338.17;;;36.00;25.20;;;;;;5003978;28;20104;-67
2024/04/07 08:08:31;;;;;;;599.38;359.75;;;36.90;25.20;;;;;;5006131;28;20523;-63
2024/04/07 08:10:58;;;;;;;595.33;374.15;;;38.00;25.10;;;;;;5009998;28;20592;-64
2024/04/07 08:13:26;;;;;;;591.30;370.15;;;38.40;24.10;;;;;;5009926;28;20235;-64
2024/04/07 08:15:54;;;;;;;604.00;380.20;;;38.30;23.90;;;;;;5025443;28;20069;-63
2024/04/07 08:18:21;;;;;;;765.03;447.42;;;38.20;23.90;;;;;;5004359;28;20534;-63
2024/04/07 08:20:48;;;;;;;599.83;390.02;;;37.80;23.90;;;;;;5007454;28;20512;-64
2024/04/07 08:23:16;;;;;;;602.75;376.23;;;37.60;23.70;;;;;;5008084;28;20054;-64
2024/04/07 08:25:45;;;;;;;590.55;374.45;;;37.50;23.70;;;;;;5006915;28;20060;-66
2024/04/07 08:28:15;;;;;;;770.70;440.33;;;37.20;23.50;;;;;;5025651;28;20480;-62
2024/04/07 08:30:43;;;;;;;622.53;365.50;;;36.80;23.40;;;;;;5015429;28;20067;-66
2024/04/07 08:33:10;;;;;;;586.85;359.13;;;36.40;23.60;;;;;;5013683;28;20061;-65
2024/04/07 08:35:37;;;;;;;646.92;379.65;;;36.20;23.70;;;;;;5017226;28;20060;-66
2024/04/07 08:38:05;;;;;;;615.58;360.30;;;36.20;23.70;;;;;;5015197;28;20226;-63
2024/04/07 08:40:32;;;;;;;606.53;366.30;;;36.30;23.60;;;;;;5011023;28;20045;-65
2024/04/07 08:43:00;;;;;;;610.47;385.48;;;36.80;23.90;;;;;;5015753;28;20096;-65
2024/04/07 08:45:28;;;;;;;609.92;389.48;;;37.40;23.90;;;;;;5010250;28;20136;-65
2024/04/07 08:47:57;;;;;;;605.25;394.80;;;38.10;23.80;;;;;;5013282;28;20157;-65
2024/04/07 08:50:24;;;;;;;750.70;466.60;;;39.00;23.70;;;;;;5009197;28;20460;-63
2024/04/07 08:52:55;;;;;;;606.78;420.73;;;39.50;23.30;;;;;;5015458;28;20054;-64
2024/04/07 08:55:22;;;;;;;610.28;422.65;;;39.60;22.90;;;;;;5014258;28;20115;-66
2024/04/07 08:57:50;;;;;;;597.13;423.15;;;39.80;22.80;;;;;;5019234;28;20119;-65
2024/04/07 09:00:16;;;;;;;803.63;508.80;;;39.80;22.80;;;;;;5005100;28;20049;-65
2024/04/07 09:02:46;;;;;;;592.65;422.75;;;39.80;22.80;;;;;;5009989;28;20245;-64
2024/04/07 09:05:14;;;;;;;618.60;439.27;;;39.80;22.80;;;;;;5014280;28;20136;-66
2024/04/07 09:07:41;;;;;;;617.17;451.08;;;40.20;22.90;;;;;;5015529;28;20057;-65
2024/04/07 09:10:10;;;;;;;686.30;478.38;;;40.90;22.90;;;;;;5009833;28;20053;-66
2024/04/07 09:12:37;;;;;;;596.72;454.08;;;41.50;22.50;;;;;;5009561;28;20068;-65
2024/04/07 09:15:05;;;;;;;606.63;460.98;;;41.70;22.20;;;;;;5012963;28;20061;-67
2024/04/07 09:17:31;;;;;;;604.30;461.05;;;41.80;21.90;;;;;;5012207;28;20057;-63
2024/04/07 09:19:59;;;;;;;636.95;469.10;;;41.90;21.90;;;;;;5017339;28;20064;-63
2024/04/07 09:22:26;;;;;;;618.90;493.05;;;42.00;21.70;;;;;;5009864;28;20292;-65
2024/04/07 09:24:59;;;;;;;608.63;481.73;;;42.40;21.60;;;;;;5011200;28;20658;-65
2024/04/07 09:27:26;;;;;;;608.03;468.20;;;42.80;21.50;;;;;;5023560;28;20413;-64
2024/04/07 09:29:54;;;;;;;610.53;481.40;;;43.20;21.30;;;;;;4992454;28;20045;-65
2024/04/07 09:32:21;;;;;;;783.22;548.95;;;43.20;21.00;;;;;;5004681;28;20060;-63
2024/04/07 09:34:52;;;;;;;600.53;475.92;;;42.90;20.90;;;;;;4997590;28;20844;-65
2024/04/07 09:37:18;;;;;;;669.30;495.92;;;42.80;20.80;;;;;;5009132;28;20054;-64
2024/04/07 09:39:48;;;;;;;606.50;485.45;;;42.90;21.00;;;;;;5010331;28;20060;-65
2024/04/07 09:42:19;;;;;;;824.40;558.15;;;42.90;20.80;;;;;;5006730;28;20057;-63
2024/04/07 09:44:49;;;;;;;605.33;484.83;;;43.10;21.00;;;;;;5010746;28;20049;-65
2024/04/07 09:47:20;;;;;;;642.85;535.78;;;43.20;20.60;;;;;;5009456;28;20407;-66
2024/04/07 09:49:54;;;;;;;609.83;498.77;;;43.30;20.70;;;;;;5017894;28;20149;-66
2024/04/07 09:52:26;;;;;;;770.45;589.15;;;43.70;20.70;;;;;;5000749;28;20041;-64
2024/04/07 09:55:03;;;;;;;643.50;524.33;;;44.20;20.70;;;;;;5013926;28;20049;-65
2024/04/07 09:57:30;;;;;;;628.08;544.55;;;44.70;20.60;;;;;;5010556;28;20488;-66
2024/04/07 10:00:00;;;;;;;660.13;543.72;;;45.60;20.60;;;;;;4990521;28;20056;-64
2024/04/07 10:02:27;;;;;;;649.55;562.72;;;46.60;20.40;;;;;;5003310;28;20254;-66
2024/04/07 10:04:55;;;;;;;650.35;579.25;;;47.60;20.20;;;;;;5013682;28;20046;-65
2024/04/07 10:07:23;;;;;;;640.63;571.13;;;48.20;19.70;;;;;;5013505;28;20045;-65
2024/04/07 10:09:53;;;;;;;650.20;579.90;;;48.80;19.50;;;;;;5015318;28;20053;-63
2024/04/07 10:12:28;;;;;;;764.70;641.78;;;49.20;19.30;;;;;;5003121;28;20052;-62
2024/04/07 10:14:56;;;;;;;658.40;588.28;;;49.60;19.20;;;;;;4998562;28;20605;-64
2024/04/07 10:17:23;;;;;;;658.92;589.65;;;49.90;19.10;;;;;;5008600;28;20048;-64
2024/04/07 10:19:51;;;;;;;659.92;589.50;;;50.10;18.90;;;;;;5008607;28;20275;-65
2024/04/07 10:22:18;;;;;;;810.72;654.40;;;50.00;18.80;;;;;;5005849;28;20053;-62
2024/04/07 10:24:50;;;;;;;658.83;590.03;;;49.80;18.70;;;;;;5009216;28;20124;-66
2024/04/07 10:27:22;;;;;;;655.05;585.20;;;49.50;18.70;;;;;;5013023;28;20141;-64
2024/04/07 10:29:54;;;;;;;646.92;578.25;;;49.30;18.80;;;;;;4999495;28;20081;-65
2024/04/07 10:32:26;;;;;;;811.00;650.00;;;49.10;18.70;;;;;;5004392;28;20053;-62
2024/04/07 10:35:00;;;;;;;651.17;581.95;;;49.20;18.90;;;;;;4998711;28;20080;-63
2024/04/07 10:37:29;;;;;;;677.10;594.75;;;49.40;18.70;;;;;;4999998;28;20509;-64
2024/04/07 10:39:57;;;;;;;650.13;580.95;;;49.10;18.60;;;;;;5010347;28;20049;-64
2024/04/07 10:42:23;;;;;;;726.65;624.67;;;49.00;18.80;;;;;;4999378;28;20143;-65
2024/04/07 10:44:53;;;;;;;643.28;574.60;;;49.00;18.70;;;;;;5020530;28;20135;-64
2024/04/07 10:47:19;;;;;;;648.10;577.20;;;48.90;18.90;;;;;;5015412;28;20049;-64
2024/04/07 10:49:47;;;;;;;641.38;573.45;;;49.00;18.60;;;;;;5014488;28;20061;-66
2024/04/07 10:52:14;;;;;;;805.67;629.47;;;48.90;18.30;;;;;;5006203;28;20536;-63
2024/04/07 10:54:42;;;;;;;631.97;563.08;;;48.70;18.20;;;;;;5002302;28;20057;-65
2024/04/07 10:57:12;;;;;;;625.45;557.70;;;48.30;18.20;;;;;;4989134;28;20542;-65
2024/04/07 10:59:40;;;;;;;609.42;541.97;;;48.10;18.20;;;;;;5011576;28;20053;-64
2024/04/07 11:02:13;;;;;;;776.65;591.85;;;47.70;18.20;;;;;;5012434;28;20542;-66
2024/04/07 11:04:42;;;;;;;604.28;524.88;;;47.40;18.30;;;;;;5006339;28;20136;-64
2024/04/07 11:07:09;;;;;;;616.17;519.00;;;47.10;18.30;;;;;;5011283;28;20104;-65
2024/04/07 11:09:39;;;;;;;631.70;516.03;;;46.50;18.30;;;;;;4999960;28;20140;-64
2024/04/07 11:12:06;;;;;;;618.03;490.38;;;45.80;18.50;;;;;;5018917;28;20049;-64
2024/04/07 11:14:35;;;;;;;657.00;486.00;;;44.90;18.70;;;;;;5007317;28;20045;-65
2024/04/07 11:17:03;;;;;;;596.15;444.67;;;43.60;18.90;;;;;;5010100;28;20053;-65
2024/04/07 11:19:32;;;;;;;692.40;467.48;;;41.70;19.20;;;;;;5007273;28;20081;-70
2024/04/07 11:21:59;;;;;;;606.75;417.23;;;39.90;19.80;;;;;;5001962;28;20092;-64
2024/04/07 11:24:27;;;;;;;628.78;427.33;;;38.40;20.40;;;;;;5005315;28;20068;-65
2024/04/07 11:26:54;;;;;;;589.85;374.67;;;37.10;21.00;;;;;;5012078;28;20057;-64
2024/04/07 11:29:22;;;;;;;611.03;370.83;;;36.10;21.50;;;;;;5011198;28;20061;-63
2024/04/07 11:31:53;;;;;;;599.05;347.13;;;35.10;21.70;;;;;;5010638;28;20088;-66
2024/04/07 11:34:21;;;;;;;775.13;416.95;;;34.40;22.10;;;;;;4997940;28;20058;-64
2024/04/07 11:36:49;;;;;;;609.45;332.10;;;33.90;22.50;;;;;;5004575;28;20049;-64
2024/04/07 11:39:17;;;;;;;627.92;326.20;;;33.40;22.70;;;;;;5011219;28;20065;-64
2024/04/07 11:41:44;;;;;;;586.33;322.10;;;33.00;22.90;;;;;;4997858;28;20056;-66
2024/04/07 11:44:13;;;;;;;762.17;359.05;;;32.70;23.00;;;;;;5005900;28;20054;-65
2024/04/07 11:46:40;;;;;;;578.03;291.10;;;32.40;23.20;;;;;;5011535;28;20053;-64
2024/04/07 11:49:07;;;;;;;634.90;307.40;;;32.30;23.30;;;;;;5011429;28;20049;-64
2024/04/07 11:51:35;;;;;;;584.08;281.23;;;32.20;23.40;;;;;;5008003;28;20107;-67
2024/04/07 11:54:08;;;;;;;582.95;285.48;;;32.10;23.50;;;;;;4994398;28;20140;-65
2024/04/07 11:56:38;;;;;;;596.75;299.70;;;32.10;23.50;;;;;;5005401;28;21153;-64
2024/04/07 11:59:05;;;;;;;585.10;308.10;;;32.10;23.60;;;;;;5019355;28;20500;-63
2024/04/07 12:01:32;;;;;;;602.13;313.63;;;32.10;24.10;;;;;;5006343;28;20060;-65
2024/04/07 12:03:59;;;;;;;580.28;284.33;;;32.10;23.60;;;;;;5006496;28;20053;-64
2024/04/07 12:06:26;;;;;;;647.25;319.40;;;32.10;23.70;;;;;;5003153;28;20080;-64
2024/04/07 12:08:53;;;;;;;590.00;299.00;;;32.00;23.70;;;;;;5010802;28;20053;-64
2024/04/07 12:11:23;;;;;;;584.92;294.33;;;32.00;23.80;;;;;;5021328;28;20045;-64
2024/04/07 12:13:50;;;;;;;593.72;297.17;;;32.00;23.80;;;;;;5022261;28;20243;-65